sensor_id;sensor_type;location;lat;lon;timestamp;P1;durP1;ratioP1;P2;durP2;ratioP2
3941;SDS011;1985;48.592;8.850;2023-03-01T00:02:06;22.98;;;9.15;;
3941;SDS011;1985;48.592;8.850;2023-03-01T00:04:31;22.60;;;9.82;;
3941;SDS011;1985;48.592;8.850;2023-03-01T00:06:57;24.30;;;10.30;;
3941;SDS011;1985;48.592;8.850;2023-03-01T00:09:23;20.23;;;10.17;;
3941;SDS011;1985;48.592;8.850;2023-03-01T00:11:48;21.47;;;10.03;;
3941;SDS011;1985;48.592;8.850;2023-03-01T00:14:15;22.20;;;10.57;;
3941;SDS011;1985;48.592;8.850;2023-03-01T00:16:43;20.00;;;9.45;;
3941;SDS011;1985;48.592;8.850;2023-03-01T00:19:14;25.67;;;9.90;;
3941;SDS011;1985;48.592;8.850;2023-03-01T00:21:42;23.25;;;10.40;;
3941;SDS011;1985;48.592;8.850;2023-03-01T00:24:08;26.35;;;10.85;;
3941;SDS011;1985;48.592;8.850;2023-03-01T00:26:34;23.88;;;9.95;;
3941;SDS011;1985;48.592;8.850;2023-03-01T00:29:00;21.40;;;10.05;;
3941;SDS011;1985;48.592;8.850;2023-03-01T00:31:29;21.43;;;9.40;;
3941;SDS011;1985;48.592;8.850;2023-03-01T00:33:56;24.55;;;10.73;;
3941;SDS011;1985;48.592;8.850;2023-03-01T00:36:25;23.30;;;10.05;;
3941;SDS011;1985;48.592;8.850;2023-03-01T00:38:52;21.60;;;10.00;;
3941;SDS011;1985;48.592;8.850;2023-03-01T00:41:19;21.20;;;9.18;;
3941;SDS011;1985;48.592;8.850;2023-03-01T00:43:45;22.05;;;9.40;;
3941;SDS011;1985;48.592;8.850;2023-03-01T00:46:12;21.53;;;9.77;;
3941;SDS011;1985;48.592;8.850;2023-03-01T00:48:39;26.37;;;9.03;;
3941;SDS011;1985;48.592;8.850;2023-03-01T00:51:06;24.40;;;9.47;;
3941;SDS011;1985;48.592;8.850;2023-03-01T00:53:33;21.05;;;9.82;;
3941;SDS011;1985;48.592;8.850;2023-03-01T00:56:00;20.08;;;9.77;;
3941;SDS011;1985;48.592;8.850;2023-03-01T00:58:26;21.77;;;9.73;;
3941;SDS011;1985;48.592;8.850;2023-03-01T01:00:52;22.30;;;8.97;;
3941;SDS011;1985;48.592;8.850;2023-03-01T01:03:18;20.03;;;9.30;;
3941;SDS011;1985;48.592;8.850;2023-03-01T01:05:44;21.98;;;9.00;;
3941;SDS011;1985;48.592;8.850;2023-03-01T01:08:09;21.55;;;9.68;;
3941;SDS011;1985;48.592;8.850;2023-03-01T01:10:35;19.67;;;8.85;;
3941;SDS011;1985;48.592;8.850;2023-03-01T01:13:01;22.35;;;10.38;;
3941;SDS011;1985;48.592;8.850;2023-03-01T01:15:27;23.08;;;10.50;;
3941;SDS011;1985;48.592;8.850;2023-03-01T01:17:53;19.55;;;9.63;;
3941;SDS011;1985;48.592;8.850;2023-03-01T01:20:19;20.20;;;9.40;;
3941;SDS011;1985;48.592;8.850;2023-03-01T01:22:45;23.33;;;9.82;;
3941;SDS011;1985;48.592;8.850;2023-03-01T01:25:11;23.03;;;9.47;;
3941;SDS011;1985;48.592;8.850;2023-03-01T01:27:37;25.67;;;9.53;;
3941;SDS011;1985;48.592;8.850;2023-03-01T01:30:03;24.85;;;10.02;;
3941;SDS011;1985;48.592;8.850;2023-03-01T01:32:29;25.30;;;10.98;;
3941;SDS011;1985;48.592;8.850;2023-03-01T01:34:55;23.83;;;9.80;;
3941;SDS011;1985;48.592;8.850;2023-03-01T01:37:20;20.60;;;9.33;;
3941;SDS011;1985;48.592;8.850;2023-03-01T01:39:46;24.70;;;10.50;;
3941;SDS011;1985;48.592;8.850;2023-03-01T01:42:15;22.30;;;9.40;;
3941;SDS011;1985;48.592;8.850;2023-03-01T01:44:44;22.63;;;10.55;;
3941;SDS011;1985;48.592;8.850;2023-03-01T01:47:15;23.23;;;10.63;;
3941;SDS011;1985;48.592;8.850;2023-03-01T01:49:54;22.30;;;10.50;;
3941;SDS011;1985;48.592;8.850;2023-03-01T01:52:26;21.38;;;10.23;;
3941;SDS011;1985;48.592;8.850;2023-03-01T01:55:15;20.48;;;10.15;;
3941;SDS011;1985;48.592;8.850;2023-03-01T01:57:50;24.15;;;10.18;;
3941;SDS011;1985;48.592;8.850;2023-03-01T02:00:23;24.40;;;11.05;;
3941;SDS011;1985;48.592;8.850;2023-03-01T02:02:53;22.40;;;9.95;;
3941;SDS011;1985;48.592;8.850;2023-03-01T02:05:36;25.15;;;10.98;;
3941;SDS011;1985;48.592;8.850;2023-03-01T02:08:08;26.67;;;11.25;;
3941;SDS011;1985;48.592;8.850;2023-03-01T02:10:38;30.13;;;10.20;;
3941;SDS011;1985;48.592;8.850;2023-03-01T02:13:05;22.35;;;10.45;;
3941;SDS011;1985;48.592;8.850;2023-03-01T02:15:32;22.63;;;10.05;;
3941;SDS011;1985;48.592;8.850;2023-03-01T02:17:59;24.80;;;10.73;;
3941;SDS011;1985;48.592;8.850;2023-03-01T02:22:59;23.27;;;10.48;;
3941;SDS011;1985;48.592;8.850;2023-03-01T02:30:20;24.40;;;9.80;;
3941;SDS011;1985;48.592;8.850;2023-03-01T02:32:47;21.75;;;9.98;;
3941;SDS011;1985;48.592;8.850;2023-03-01T02:35:15;24.00;;;10.32;;
3941;SDS011;1985;48.592;8.850;2023-03-01T02:37:43;24.45;;;11.05;;
3941;SDS011;1985;48.592;8.850;2023-03-01T02:40:14;25.25;;;10.60;;
3941;SDS011;1985;48.592;8.850;2023-03-01T02:42:48;25.55;;;9.95;;
3941;SDS011;1985;48.592;8.850;2023-03-01T02:45:17;24.35;;;9.90;;
3941;SDS011;1985;48.592;8.850;2023-03-01T02:47:42;22.20;;;9.40;;
3941;SDS011;1985;48.592;8.850;2023-03-01T02:50:51;24.50;;;10.27;;
3941;SDS011;1985;48.592;8.850;2023-03-01T02:53:39;21.67;;;10.00;;
3941;SDS011;1985;48.592;8.850;2023-03-01T02:56:03;26.98;;;10.40;;
3941;SDS011;1985;48.592;8.850;2023-03-01T02:58:29;23.83;;;10.50;;
3941;SDS011;1985;48.592;8.850;2023-03-01T03:00:55;23.87;;;10.40;;
3941;SDS011;1985;48.592;8.850;2023-03-01T03:03:21;31.35;;;10.77;;
3941;SDS011;1985;48.592;8.850;2023-03-01T03:05:47;28.45;;;11.32;;
3941;SDS011;1985;48.592;8.850;2023-03-01T03:08:13;27.73;;;11.50;;
3941;SDS011;1985;48.592;8.850;2023-03-01T03:10:41;27.25;;;11.23;;
3941;SDS011;1985;48.592;8.850;2023-03-01T03:13:17;24.40;;;11.40;;
3941;SDS011;1985;48.592;8.850;2023-03-01T03:15:44;26.95;;;11.50;;
3941;SDS011;1985;48.592;8.850;2023-03-01T03:18:11;21.67;;;9.83;;
3941;SDS011;1985;48.592;8.850;2023-03-01T03:20:39;23.88;;;10.25;;
3941;SDS011;1985;48.592;8.850;2023-03-01T03:23:06;21.77;;;10.17;;
3941;SDS011;1985;48.592;8.850;2023-03-01T03:25:32;25.03;;;11.47;;
3941;SDS011;1985;48.592;8.850;2023-03-01T03:28:03;21.85;;;9.90;;
3941;SDS011;1985;48.592;8.850;2023-03-01T03:30:34;23.35;;;10.13;;
3941;SDS011;1985;48.592;8.850;2023-03-01T03:33:01;27.23;;;11.25;;
3941;SDS011;1985;48.592;8.850;2023-03-01T03:35:28;25.43;;;10.63;;
3941;SDS011;1985;48.592;8.850;2023-03-01T03:37:56;24.15;;;11.10;;
3941;SDS011;1985;48.592;8.850;2023-03-01T03:40:40;25.50;;;11.30;;
3941;SDS011;1985;48.592;8.850;2023-03-01T03:43:08;22.70;;;10.20;;
3941;SDS011;1985;48.592;8.850;2023-03-01T03:45:36;21.20;;;9.70;;
3941;SDS011;1985;48.592;8.850;2023-03-01T03:48:02;25.77;;;10.32;;
3941;SDS011;1985;48.592;8.850;2023-03-01T03:50:30;25.65;;;10.48;;
3941;SDS011;1985;48.592;8.850;2023-03-01T03:52:55;22.90;;;10.07;;
3941;SDS011;1985;48.592;8.850;2023-03-01T03:55:21;24.40;;;10.93;;
3941;SDS011;1985;48.592;8.850;2023-03-01T03:57:47;24.88;;;10.43;;
3941;SDS011;1985;48.592;8.850;2023-03-01T04:00:20;27.88;;;10.77;;
3941;SDS011;1985;48.592;8.850;2023-03-01T04:02:48;23.88;;;10.30;;
3941;SDS011;1985;48.592;8.850;2023-03-01T04:05:15;27.33;;;11.90;;
3941;SDS011;1985;48.592;8.850;2023-03-01T04:07:43;24.88;;;10.65;;
3941;SDS011;1985;48.592;8.850;2023-03-01T04:10:11;21.05;;;10.15;;
3941;SDS011;1985;48.592;8.850;2023-03-01T04:12:42;22.95;;;10.75;;
3941;SDS011;1985;48.592;8.850;2023-03-01T04:15:08;24.23;;;10.48;;
3941;SDS011;1985;48.592;8.850;2023-03-01T04:17:47;23.25;;;11.18;;
3941;SDS011;1985;48.592;8.850;2023-03-01T04:20:14;23.52;;;12.38;;
3941;SDS011;1985;48.592;8.850;2023-03-01T04:22:56;26.13;;;11.40;;
3941;SDS011;1985;48.592;8.850;2023-03-01T04:28:19;24.98;;;11.70;;
3941;SDS011;1985;48.592;8.850;2023-03-01T04:31:14;26.53;;;11.03;;
3941;SDS011;1985;48.592;8.850;2023-03-01T04:36:11;24.00;;;11.23;;
3941;SDS011;1985;48.592;8.850;2023-03-01T04:38:37;26.27;;;11.88;;
3941;SDS011;1985;48.592;8.850;2023-03-01T04:41:05;26.48;;;10.93;;
3941;SDS011;1985;48.592;8.850;2023-03-01T04:43:32;26.80;;;11.43;;
3941;SDS011;1985;48.592;8.850;2023-03-01T04:46:09;26.10;;;11.43;;
3941;SDS011;1985;48.592;8.850;2023-03-01T04:48:37;28.67;;;12.25;;
3941;SDS011;1985;48.592;8.850;2023-03-01T04:51:04;23.10;;;11.30;;
3941;SDS011;1985;48.592;8.850;2023-03-01T04:53:31;24.80;;;11.30;;
3941;SDS011;1985;48.592;8.850;2023-03-01T04:55:57;23.63;;;11.43;;
3941;SDS011;1985;48.592;8.850;2023-03-01T04:58:24;26.08;;;11.50;;
3941;SDS011;1985;48.592;8.850;2023-03-01T05:00:51;24.33;;;11.75;;
3941;SDS011;1985;48.592;8.850;2023-03-01T05:03:17;22.75;;;10.90;;
3941;SDS011;1985;48.592;8.850;2023-03-01T05:05:44;23.60;;;11.82;;
3941;SDS011;1985;48.592;8.850;2023-03-01T05:08:11;23.45;;;11.50;;
3941;SDS011;1985;48.592;8.850;2023-03-01T05:10:42;23.05;;;11.07;;
3941;SDS011;1985;48.592;8.850;2023-03-01T05:13:10;26.60;;;11.75;;
3941;SDS011;1985;48.592;8.850;2023-03-01T05:15:38;28.07;;;13.10;;
3941;SDS011;1985;48.592;8.850;2023-03-01T05:18:04;26.23;;;11.10;;
3941;SDS011;1985;48.592;8.850;2023-03-01T05:20:36;23.05;;;10.70;;
3941;SDS011;1985;48.592;8.850;2023-03-01T05:23:02;24.25;;;11.55;;
3941;SDS011;1985;48.592;8.850;2023-03-01T05:25:30;26.35;;;11.65;;
3941;SDS011;1985;48.592;8.850;2023-03-01T05:27:58;30.83;;;12.05;;
3941;SDS011;1985;48.592;8.850;2023-03-01T05:30:29;26.30;;;12.82;;
3941;SDS011;1985;48.592;8.850;2023-03-01T05:32:55;28.58;;;12.15;;
3941;SDS011;1985;48.592;8.850;2023-03-01T05:35:21;26.30;;;11.95;;
3941;SDS011;1985;48.592;8.850;2023-03-01T05:37:47;27.70;;;12.50;;
3941;SDS011;1985;48.592;8.850;2023-03-01T05:40:15;27.70;;;12.18;;
3941;SDS011;1985;48.592;8.850;2023-03-01T05:42:55;29.15;;;12.98;;
3941;SDS011;1985;48.592;8.850;2023-03-01T05:45:22;33.45;;;13.50;;
3941;SDS011;1985;48.592;8.850;2023-03-01T05:47:50;27.45;;;12.73;;
3941;SDS011;1985;48.592;8.850;2023-03-01T05:50:17;26.63;;;12.23;;
3941;SDS011;1985;48.592;8.850;2023-03-01T05:52:47;30.30;;;12.43;;
3941;SDS011;1985;48.592;8.850;2023-03-01T05:55:16;28.75;;;12.10;;
3941;SDS011;1985;48.592;8.850;2023-03-01T05:57:42;26.87;;;11.87;;
3941;SDS011;1985;48.592;8.850;2023-03-01T06:00:08;27.13;;;12.20;;
3941;SDS011;1985;48.592;8.850;2023-03-01T06:02:35;24.73;;;12.40;;
3941;SDS011;1985;48.592;8.850;2023-03-01T06:05:01;24.00;;;11.73;;
3941;SDS011;1985;48.592;8.850;2023-03-01T06:07:27;28.55;;;13.15;;
3941;SDS011;1985;48.592;8.850;2023-03-01T06:09:53;29.42;;;13.40;;
3941;SDS011;1985;48.592;8.850;2023-03-01T06:12:18;24.30;;;12.57;;
3941;SDS011;1985;48.592;8.850;2023-03-01T06:14:44;24.40;;;12.37;;
3941;SDS011;1985;48.592;8.850;2023-03-01T06:17:11;28.63;;;13.50;;
3941;SDS011;1985;48.592;8.850;2023-03-01T06:19:37;26.03;;;12.80;;
3941;SDS011;1985;48.592;8.850;2023-03-01T06:22:02;27.70;;;12.67;;
3941;SDS011;1985;48.592;8.850;2023-03-01T06:24:28;26.67;;;12.38;;
3941;SDS011;1985;48.592;8.850;2023-03-01T06:26:54;27.50;;;12.43;;
3941;SDS011;1985;48.592;8.850;2023-03-01T06:29:20;27.80;;;11.32;;
3941;SDS011;1985;48.592;8.850;2023-03-01T06:31:47;25.02;;;11.70;;
3941;SDS011;1985;48.592;8.850;2023-03-01T06:34:13;27.87;;;12.67;;
3941;SDS011;1985;48.592;8.850;2023-03-01T06:36:39;26.45;;;12.88;;
3941;SDS011;1985;48.592;8.850;2023-03-01T06:39:05;25.48;;;12.05;;
3941;SDS011;1985;48.592;8.850;2023-03-01T06:41:31;24.33;;;11.65;;
3941;SDS011;1985;48.592;8.850;2023-03-01T06:43:58;26.95;;;12.68;;
3941;SDS011;1985;48.592;8.850;2023-03-01T06:46:24;28.75;;;12.93;;
3941;SDS011;1985;48.592;8.850;2023-03-01T06:48:50;24.65;;;11.68;;
3941;SDS011;1985;48.592;8.850;2023-03-01T06:51:16;26.52;;;12.32;;
3941;SDS011;1985;48.592;8.850;2023-03-01T06:53:41;26.35;;;11.27;;
3941;SDS011;1985;48.592;8.850;2023-03-01T06:56:07;25.92;;;13.20;;
3941;SDS011;1985;48.592;8.850;2023-03-01T06:58:33;28.42;;;12.70;;
3941;SDS011;1985;48.592;8.850;2023-03-01T07:00:58;30.93;;;12.60;;
3941;SDS011;1985;48.592;8.850;2023-03-01T07:03:24;27.20;;;13.00;;
3941;SDS011;1985;48.592;8.850;2023-03-01T07:05:50;30.00;;;13.40;;
3941;SDS011;1985;48.592;8.850;2023-03-01T07:08:19;26.30;;;12.30;;
3941;SDS011;1985;48.592;8.850;2023-03-01T07:10:44;29.17;;;13.60;;
3941;SDS011;1985;48.592;8.850;2023-03-01T07:13:10;27.83;;;12.73;;
3941;SDS011;1985;48.592;8.850;2023-03-01T07:15:36;25.52;;;11.95;;
3941;SDS011;1985;48.592;8.850;2023-03-01T07:18:01;26.43;;;12.07;;
3941;SDS011;1985;48.592;8.850;2023-03-01T07:20:27;27.47;;;12.57;;
3941;SDS011;1985;48.592;8.850;2023-03-01T07:22:53;26.70;;;12.23;;
3941;SDS011;1985;48.592;8.850;2023-03-01T07:25:20;25.05;;;11.82;;
3941;SDS011;1985;48.592;8.850;2023-03-01T07:27:52;29.92;;;12.25;;
3941;SDS011;1985;48.592;8.850;2023-03-01T07:30:19;26.48;;;13.15;;
3941;SDS011;1985;48.592;8.850;2023-03-01T07:32:46;26.48;;;12.70;;
3941;SDS011;1985;48.592;8.850;2023-03-01T07:35:11;29.42;;;13.70;;
3941;SDS011;1985;48.592;8.850;2023-03-01T07:37:37;26.40;;;12.63;;
3941;SDS011;1985;48.592;8.850;2023-03-01T07:40:03;26.67;;;11.93;;
3941;SDS011;1985;48.592;8.850;2023-03-01T07:42:29;24.77;;;12.40;;
3941;SDS011;1985;48.592;8.850;2023-03-01T07:44:55;28.53;;;12.73;;
3941;SDS011;1985;48.592;8.850;2023-03-01T07:47:20;26.77;;;12.38;;
3941;SDS011;1985;48.592;8.850;2023-03-01T07:49:46;26.95;;;12.95;;
3941;SDS011;1985;48.592;8.850;2023-03-01T07:52:12;26.83;;;12.27;;
3941;SDS011;1985;48.592;8.850;2023-03-01T07:54:38;26.97;;;12.53;;
3941;SDS011;1985;48.592;8.850;2023-03-01T07:57:03;28.30;;;13.40;;
3941;SDS011;1985;48.592;8.850;2023-03-01T07:59:29;24.03;;;11.77;;
3941;SDS011;1985;48.592;8.850;2023-03-01T08:01:55;28.10;;;11.75;;
3941;SDS011;1985;48.592;8.850;2023-03-01T08:04:22;25.45;;;11.30;;
3941;SDS011;1985;48.592;8.850;2023-03-01T08:06:49;26.52;;;13.00;;
3941;SDS011;1985;48.592;8.850;2023-03-01T08:09:16;24.30;;;12.43;;
3941;SDS011;1985;48.592;8.850;2023-03-01T08:11:41;29.40;;;13.07;;
3941;SDS011;1985;48.592;8.850;2023-03-01T08:14:07;24.92;;;12.80;;
3941;SDS011;1985;48.592;8.850;2023-03-01T08:16:33;29.13;;;13.27;;
3941;SDS011;1985;48.592;8.850;2023-03-01T08:19:10;29.85;;;12.40;;
3941;SDS011;1985;48.592;8.850;2023-03-01T08:21:37;25.65;;;11.80;;
3941;SDS011;1985;48.592;8.850;2023-03-01T08:24:03;28.75;;;13.23;;
3941;SDS011;1985;48.592;8.850;2023-03-01T08:26:30;25.60;;;11.88;;
3941;SDS011;1985;48.592;8.850;2023-03-01T08:28:57;27.15;;;11.98;;
3941;SDS011;1985;48.592;8.850;2023-03-01T08:33:52;28.75;;;12.73;;
3941;SDS011;1985;48.592;8.850;2023-03-01T08:36:26;27.10;;;12.33;;
3941;SDS011;1985;48.592;8.850;2023-03-01T08:38:55;25.13;;;11.82;;
3941;SDS011;1985;48.592;8.850;2023-03-01T08:41:21;23.23;;;11.70;;
3941;SDS011;1985;48.592;8.850;2023-03-01T08:43:47;25.90;;;12.10;;
3941;SDS011;1985;48.592;8.850;2023-03-01T08:46:13;28.27;;;13.67;;
3941;SDS011;1985;48.592;8.850;2023-03-01T08:48:39;29.63;;;12.10;;
3941;SDS011;1985;48.592;8.850;2023-03-01T08:51:08;27.88;;;13.05;;
3941;SDS011;1985;48.592;8.850;2023-03-01T08:53:36;27.85;;;12.95;;
3941;SDS011;1985;48.592;8.850;2023-03-01T08:56:01;28.02;;;12.60;;
3941;SDS011;1985;48.592;8.850;2023-03-01T08:58:30;30.55;;;13.52;;
3941;SDS011;1985;48.592;8.850;2023-03-01T09:00:56;26.93;;;12.47;;
3941;SDS011;1985;48.592;8.850;2023-03-01T09:03:22;25.70;;;12.00;;
3941;SDS011;1985;48.592;8.850;2023-03-01T09:05:48;31.10;;;13.00;;
3941;SDS011;1985;48.592;8.850;2023-03-01T09:08:15;27.47;;;12.40;;
3941;SDS011;1985;48.592;8.850;2023-03-01T09:10:44;25.13;;;11.55;;
3941;SDS011;1985;48.592;8.850;2023-03-01T09:13:10;27.45;;;12.30;;
3941;SDS011;1985;48.592;8.850;2023-03-01T09:15:38;25.73;;;11.85;;
3941;SDS011;1985;48.592;8.850;2023-03-01T09:18:04;27.02;;;13.60;;
3941;SDS011;1985;48.592;8.850;2023-03-01T09:20:30;24.58;;;12.07;;
3941;SDS011;1985;48.592;8.850;2023-03-01T09:22:57;25.80;;;12.57;;
3941;SDS011;1985;48.592;8.850;2023-03-01T09:25:23;26.52;;;13.07;;
3941;SDS011;1985;48.592;8.850;2023-03-01T09:27:52;25.17;;;12.90;;
3941;SDS011;1985;48.592;8.850;2023-03-01T09:30:18;26.58;;;13.38;;
3941;SDS011;1985;48.592;8.850;2023-03-01T09:32:44;29.67;;;13.43;;
3941;SDS011;1985;48.592;8.850;2023-03-01T09:35:10;27.38;;;12.10;;
3941;SDS011;1985;48.592;8.850;2023-03-01T09:37:37;24.67;;;11.70;;
3941;SDS011;1985;48.592;8.850;2023-03-01T09:40:04;24.75;;;11.95;;
3941;SDS011;1985;48.592;8.850;2023-03-01T09:42:32;29.45;;;13.68;;
3941;SDS011;1985;48.592;8.850;2023-03-01T09:45:33;25.87;;;12.50;;
3941;SDS011;1985;48.592;8.850;2023-03-01T09:47:57;25.50;;;12.43;;
3941;SDS011;1985;48.592;8.850;2023-03-01T09:50:31;26.45;;;12.30;;
3941;SDS011;1985;48.592;8.850;2023-03-01T09:53:02;25.52;;;12.65;;
3941;SDS011;1985;48.592;8.850;2023-03-01T10:06:38;25.80;;;12.15;;
3941;SDS011;1985;48.592;8.850;2023-03-01T10:09:12;23.92;;;12.15;;
3941;SDS011;1985;48.592;8.850;2023-03-01T10:11:50;25.23;;;12.68;;
3941;SDS011;1985;48.592;8.850;2023-03-01T10:14:29;23.48;;;11.38;;
3941;SDS011;1985;48.592;8.850;2023-03-01T10:17:07;26.77;;;11.55;;
3941;SDS011;1985;48.592;8.850;2023-03-01T10:19:42;25.13;;;11.40;;
3941;SDS011;1985;48.592;8.850;2023-03-01T10:22:15;26.70;;;12.90;;
3941;SDS011;1985;48.592;8.850;2023-03-01T10:24:48;27.27;;;12.50;;
3941;SDS011;1985;48.592;8.850;2023-03-01T10:27:22;26.40;;;11.30;;
3941;SDS011;1985;48.592;8.850;2023-03-01T10:32:45;25.67;;;11.88;;
3941;SDS011;1985;48.592;8.850;2023-03-01T10:35:23;25.80;;;12.57;;
3941;SDS011;1985;48.592;8.850;2023-03-01T10:38:10;24.73;;;11.45;;
3941;SDS011;1985;48.592;8.850;2023-03-01T10:40:52;28.00;;;12.90;;
3941;SDS011;1985;48.592;8.850;2023-03-01T10:43:20;29.08;;;12.25;;
3941;SDS011;1985;48.592;8.850;2023-03-01T10:45:46;24.77;;;12.80;;
3941;SDS011;1985;48.592;8.850;2023-03-01T10:50:48;23.08;;;12.35;;
3941;SDS011;1985;48.592;8.850;2023-03-01T10:53:26;27.90;;;13.48;;
3941;SDS011;1985;48.592;8.850;2023-03-01T10:56:01;24.05;;;12.07;;
3941;SDS011;1985;48.592;8.850;2023-03-01T10:58:31;26.38;;;13.15;;
3941;SDS011;1985;48.592;8.850;2023-03-01T11:00:59;30.73;;;13.90;;
3941;SDS011;1985;48.592;8.850;2023-03-01T11:03:29;23.80;;;11.73;;
3941;SDS011;1985;48.592;8.850;2023-03-01T11:08:44;24.75;;;11.80;;
3941;SDS011;1985;48.592;8.850;2023-03-01T11:16:47;26.60;;;12.33;;
3941;SDS011;1985;48.592;8.850;2023-03-01T11:19:23;30.58;;;13.60;;
3941;SDS011;1985;48.592;8.850;2023-03-01T11:24:23;25.52;;;12.32;;
3941;SDS011;1985;48.592;8.850;2023-03-01T11:26:57;24.10;;;12.43;;
3941;SDS011;1985;48.592;8.850;2023-03-01T11:29:47;24.38;;;12.68;;
3941;SDS011;1985;48.592;8.850;2023-03-01T11:32:21;24.75;;;12.60;;
3941;SDS011;1985;48.592;8.850;2023-03-01T11:37:21;26.63;;;12.27;;
3941;SDS011;1985;48.592;8.850;2023-03-01T11:39:55;24.88;;;11.68;;
3941;SDS011;1985;48.592;8.850;2023-03-01T11:45:23;26.40;;;12.65;;
3941;SDS011;1985;48.592;8.850;2023-03-01T11:50:39;22.52;;;12.25;;
3941;SDS011;1985;48.592;8.850;2023-03-01T11:53:24;28.35;;;13.10;;
3941;SDS011;1985;48.592;8.850;2023-03-01T12:04:30;26.10;;;12.05;;
3941;SDS011;1985;48.592;8.850;2023-03-01T12:07:15;23.10;;;12.30;;
3941;SDS011;1985;48.592;8.850;2023-03-01T12:10:15;24.77;;;12.25;;
3941;SDS011;1985;48.592;8.850;2023-03-01T12:26:23;21.52;;;11.98;;
3941;SDS011;1985;48.592;8.850;2023-03-01T12:40:01;22.80;;;12.40;;
3941;SDS011;1985;48.592;8.850;2023-03-01T12:50:42;24.07;;;12.50;;
3941;SDS011;1985;48.592;8.850;2023-03-01T12:53:55;26.20;;;12.68;;
3941;SDS011;1985;48.592;8.850;2023-03-01T12:56:06;26.25;;;12.90;;
3941;SDS011;1985;48.592;8.850;2023-03-01T13:05:23;23.48;;;12.50;;
3941;SDS011;1985;48.592;8.850;2023-03-01T13:10:24;23.92;;;12.13;;
3941;SDS011;1985;48.592;8.850;2023-03-01T13:17:48;24.30;;;12.27;;
3941;SDS011;1985;48.592;8.850;2023-03-01T13:20:17;22.50;;;12.27;;
3941;SDS011;1985;48.592;8.850;2023-03-01T13:22:46;25.73;;;12.43;;
3941;SDS011;1985;48.592;8.850;2023-03-01T13:25:17;25.83;;;13.27;;
3941;SDS011;1985;48.592;8.850;2023-03-01T13:27:45;24.95;;;12.80;;
3941;SDS011;1985;48.592;8.850;2023-03-01T13:30:57;25.38;;;12.07;;
3941;SDS011;1985;48.592;8.850;2023-03-01T13:41:06;25.10;;;11.73;;
3941;SDS011;1985;48.592;8.850;2023-03-01T13:43:36;25.38;;;11.80;;
3941;SDS011;1985;48.592;8.850;2023-03-01T13:48:44;28.65;;;12.00;;
3941;SDS011;1985;48.592;8.850;2023-03-01T13:51:12;25.08;;;11.70;;
3941;SDS011;1985;48.592;8.850;2023-03-01T13:53:45;26.90;;;12.40;;
3941;SDS011;1985;48.592;8.850;2023-03-01T13:58:44;26.00;;;10.93;;
3941;SDS011;1985;48.592;8.850;2023-03-01T14:03:53;26.33;;;11.63;;
3941;SDS011;1985;48.592;8.850;2023-03-01T14:06:21;25.33;;;11.07;;
3941;SDS011;1985;48.592;8.850;2023-03-01T14:20:02;23.90;;;11.02;;
3941;SDS011;1985;48.592;8.850;2023-03-01T14:22:36;25.65;;;11.50;;
3941;SDS011;1985;48.592;8.850;2023-03-01T14:25:06;24.35;;;9.48;;
3941;SDS011;1985;48.592;8.850;2023-03-01T14:30:43;24.45;;;10.75;;
3941;SDS011;1985;48.592;8.850;2023-03-01T14:36:02;25.15;;;9.90;;
3941;SDS011;1985;48.592;8.850;2023-03-01T14:41:10;21.27;;;9.60;;
3941;SDS011;1985;48.592;8.850;2023-03-01T14:43:43;25.20;;;10.55;;
3941;SDS011;1985;48.592;8.850;2023-03-01T14:48:57;25.17;;;12.18;;
3941;SDS011;1985;48.592;8.850;2023-03-01T14:51:26;27.50;;;12.48;;
3941;SDS011;1985;48.592;8.850;2023-03-01T14:53:52;24.23;;;12.20;;
3941;SDS011;1985;48.592;8.850;2023-03-01T14:56:18;30.00;;;13.35;;
3941;SDS011;1985;48.592;8.850;2023-03-01T14:58:44;28.77;;;13.48;;
3941;SDS011;1985;48.592;8.850;2023-03-01T15:01:13;29.52;;;13.10;;
3941;SDS011;1985;48.592;8.850;2023-03-01T15:03:50;29.23;;;12.63;;
3941;SDS011;1985;48.592;8.850;2023-03-01T15:06:17;24.38;;;12.48;;
3941;SDS011;1985;48.592;8.850;2023-03-01T15:08:46;27.50;;;12.13;;
3941;SDS011;1985;48.592;8.850;2023-03-01T15:11:22;28.20;;;12.23;;
3941;SDS011;1985;48.592;8.850;2023-03-01T15:13:58;27.25;;;13.15;;
3941;SDS011;1985;48.592;8.850;2023-03-01T15:18:58;28.30;;;12.13;;
3941;SDS011;1985;48.592;8.850;2023-03-01T15:21:37;27.27;;;12.35;;
3941;SDS011;1985;48.592;8.850;2023-03-01T15:26:43;27.85;;;12.65;;
3941;SDS011;1985;48.592;8.850;2023-03-01T15:29:32;27.13;;;12.43;;
3941;SDS011;1985;48.592;8.850;2023-03-01T15:32:27;25.65;;;11.80;;
3941;SDS011;1985;48.592;8.850;2023-03-01T15:34:59;26.57;;;12.77;;
3941;SDS011;1985;48.592;8.850;2023-03-01T15:40:21;27.00;;;12.25;;
3941;SDS011;1985;48.592;8.850;2023-03-01T15:42:49;29.20;;;13.30;;
3941;SDS011;1985;48.592;8.850;2023-03-01T15:47:53;29.00;;;12.90;;
3941;SDS011;1985;48.592;8.850;2023-03-01T15:50:27;28.55;;;12.50;;
3941;SDS011;1985;48.592;8.850;2023-03-01T15:52:54;26.48;;;12.73;;
3941;SDS011;1985;48.592;8.850;2023-03-01T15:58:03;29.10;;;13.35;;
3941;SDS011;1985;48.592;8.850;2023-03-01T16:00:40;27.13;;;13.35;;
3941;SDS011;1985;48.592;8.850;2023-03-01T16:03:07;34.13;;;12.70;;
3941;SDS011;1985;48.592;8.850;2023-03-01T16:05:36;36.25;;;13.40;;
3941;SDS011;1985;48.592;8.850;2023-03-01T16:08:04;29.65;;;12.85;;
3941;SDS011;1985;48.592;8.850;2023-03-01T16:10:31;29.13;;;13.32;;
3941;SDS011;1985;48.592;8.850;2023-03-01T16:12:57;29.50;;;12.60;;
3941;SDS011;1985;48.592;8.850;2023-03-01T16:15:30;28.52;;;13.02;;
3941;SDS011;1985;48.592;8.850;2023-03-01T16:17:59;26.33;;;12.93;;
3941;SDS011;1985;48.592;8.850;2023-03-01T16:20:25;27.77;;;13.20;;
3941;SDS011;1985;48.592;8.850;2023-03-01T16:22:51;26.42;;;13.02;;
3941;SDS011;1985;48.592;8.850;2023-03-01T16:25:18;26.52;;;12.95;;
3941;SDS011;1985;48.592;8.850;2023-03-01T16:27:45;32.08;;;14.32;;
3941;SDS011;1985;48.592;8.850;2023-03-01T16:30:17;32.33;;;12.90;;
3941;SDS011;1985;48.592;8.850;2023-03-01T16:32:45;31.98;;;13.35;;
3941;SDS011;1985;48.592;8.850;2023-03-01T16:35:13;27.60;;;13.05;;
3941;SDS011;1985;48.592;8.850;2023-03-01T16:37:40;27.55;;;13.07;;
3941;SDS011;1985;48.592;8.850;2023-03-01T16:40:11;30.98;;;14.50;;
3941;SDS011;1985;48.592;8.850;2023-03-01T16:42:42;30.77;;;14.65;;
3941;SDS011;1985;48.592;8.850;2023-03-01T16:45:08;31.70;;;13.40;;
3941;SDS011;1985;48.592;8.850;2023-03-01T16:47:34;27.58;;;13.55;;
3941;SDS011;1985;48.592;8.850;2023-03-01T16:50:00;31.58;;;13.82;;
3941;SDS011;1985;48.592;8.850;2023-03-01T16:52:26;25.65;;;12.13;;
3941;SDS011;1985;48.592;8.850;2023-03-01T16:54:51;30.60;;;13.73;;
3941;SDS011;1985;48.592;8.850;2023-03-01T16:57:17;27.35;;;13.60;;
3941;SDS011;1985;48.592;8.850;2023-03-01T16:59:43;29.50;;;13.23;;
3941;SDS011;1985;48.592;8.850;2023-03-01T17:02:11;38.65;;;17.65;;
3941;SDS011;1985;48.592;8.850;2023-03-01T17:04:39;33.90;;;15.50;;
3941;SDS011;1985;48.592;8.850;2023-03-01T17:07:05;33.50;;;15.83;;
3941;SDS011;1985;48.592;8.850;2023-03-01T17:09:33;34.60;;;16.45;;
3941;SDS011;1985;48.592;8.850;2023-03-01T17:12:01;31.63;;;15.07;;
3941;SDS011;1985;48.592;8.850;2023-03-01T17:14:26;28.20;;;13.20;;
3941;SDS011;1985;48.592;8.850;2023-03-01T17:16:52;29.10;;;13.57;;
3941;SDS011;1985;48.592;8.850;2023-03-01T17:19:17;27.58;;;13.23;;
3941;SDS011;1985;48.592;8.850;2023-03-01T17:21:44;29.83;;;13.20;;
3941;SDS011;1985;48.592;8.850;2023-03-01T17:24:10;27.90;;;12.80;;
3941;SDS011;1985;48.592;8.850;2023-03-01T17:26:36;30.67;;;13.50;;
3941;SDS011;1985;48.592;8.850;2023-03-01T17:29:02;31.20;;;14.02;;
3941;SDS011;1985;48.592;8.850;2023-03-01T17:31:29;29.45;;;13.48;;
3941;SDS011;1985;48.592;8.850;2023-03-01T17:33:56;30.58;;;14.00;;
3941;SDS011;1985;48.592;8.850;2023-03-01T17:36:21;26.95;;;13.10;;
3941;SDS011;1985;48.592;8.850;2023-03-01T17:38:47;27.60;;;13.43;;